Artesia ASC

2021-01-22 06:50:00

  • imperial
Date Time Air Temperature Relative Humidity Dewpoint Heat Index Wind Speed Wind Dir. Rain Solar Radiation Soil Temperature
2m 2m 3m 3m 10cm
US/Mountain F % F F MPH deg in MJ/m^2 F
max avg avg
2021-01-21 07:05:00 40.5 71.7 32.1 40.5 4.9 6.3 4.8 325.0 315.0 0.00 0.0020000 44.3
2021-01-21 07:10:00 40.5 71.7 32.1 40.5 4.0 5.1 3.7 310.3 316.6 0.00 0.0040000 44.3
2021-01-21 07:15:00 40.8 71.5 32.3 40.8 4.7 4.7 3.7 310.1 311.1 0.00 0.0060000 44.3
2021-01-21 07:20:00 40.7 71.4 32.2 40.7 3.1 4.6 3.8 307.8 316.2 0.00 0.0110000 44.3
2021-01-21 07:25:00 41.0 70.9 32.3 41.0 2.4 3.7 2.9 306.5 320.4 0.00 0.0170000 44.3
2021-01-21 07:30:00 41.2 70.7 32.4 41.2 3.1 3.8 3.2 331.2 308.4 0.00 0.0220000 44.3
2021-01-21 07:35:00 41.3 70.1 32.3 41.3 4.7 4.7 3.7 348.8 340.6 0.00 0.0230000 44.3
2021-01-21 07:40:00 41.4 69.5 32.2 41.4 1.9 4.7 3.3 24.1 350.8 0.00 0.0240000 44.2
2021-01-21 07:45:00 41.5 69.4 32.3 41.5 1.5 1.7 1.3 233.3 162.6 0.00 0.0270000 44.2
2021-01-21 07:50:00 41.5 69.9 32.4 41.5 2.8 3.5 2.7 289.6 270.5 0.00 0.0320000 44.2
2021-01-21 07:55:00 41.8 69.8 32.6 41.8 2.1 3.1 2.0 72.3 351.6 0.00 0.0370000 44.2
2021-01-21 08:00:00 41.9 71.4 33.3 41.9 3.3 3.3 2.2 170.7 122.1 0.00 0.0470000 44.2
2021-01-21 08:05:00 41.6 73.2 33.6 41.6 0.0 3.3 1.4 14.8 202.7 0.00 0.0510000 44.2
2021-01-21 08:10:00 42.0 69.7 32.8 42.0 2.1 2.8 2.0 47.8 42.1 0.00 0.0510000 44.2
2021-01-21 08:15:00 42.3 68.9 32.8 42.3 1.3 2.2 1.5 321.0 349.6 0.00 0.0540000 44.2
2021-01-21 08:20:00 42.2 68.2 32.5 42.2 1.5 2.1 1.5 3.4 342.5 0.00 0.0680000 44.2
2021-01-21 08:25:00 42.7 69.0 33.2 42.7 2.6 3.5 2.2 74.2 64.6 0.00 0.0860000 44.2
2021-01-21 08:30:00 42.1 69.3 32.7 42.1 0.0 3.1 1.6 291.5 52.4 0.00 0.0740000 44.2
2021-01-21 08:35:00 42.5 68.9 33.0 42.5 1.2 1.7 0.4 85.3 73.1 0.00 0.0720000 44.2
2021-01-21 08:40:00 42.4 68.3 32.7 42.4 2.6 3.0 2.2 54.9 58.3 0.00 0.0740000 44.2
2021-01-21 08:45:00 42.6 68.4 32.9 42.6 1.5 2.8 1.7 39.0 40.4 0.00 0.0790000 44.2
2021-01-21 08:50:00 42.7 67.3 32.6 42.7 1.2 1.3 0.1 49.0 61.3 0.00 0.0860000 44.2
2021-01-21 08:55:00 42.9 67.1 32.7 42.9 3.3 3.3 2.4 41.9 48.2 0.00 0.0880000 44.2
2021-01-21 09:00:00 43.5 65.9 32.8 43.5 2.2 3.1 2.3 90.5 59.0 0.00 0.1330000 44.2
2021-01-21 09:05:00 44.5 64.2 33.2 44.5 1.7 2.8 1.9 23.3 80.9 0.00 0.2820000 44.2
2021-01-21 09:10:00 45.8 61.0 33.1 45.8 0.8 1.9 1.1 62.4 30.2 0.00 0.2560000 44.2
2021-01-21 09:15:00 47.1 58.2 33.2 47.1 0.0 1.0 0.1 94.9 72.3 0.00 0.3610000 44.2
2021-01-21 09:20:00 48.3 58.3 34.3 48.3 1.9 3.3 1.6 110.1 97.5 0.00 0.3850000 44.2
2021-01-21 09:25:00 48.2 55.6 33.1 48.2 1.7 2.6 1.5 24.0 96.4 0.00 0.4090000 44.2
2021-01-21 09:30:00 49.0 54.2 33.2 49.0 1.5 3.8 2.2 345.3 334.4 0.00 0.2090000 44.2
2021-01-21 09:35:00 49.5 54.1 33.6 49.5 3.3 3.3 2.2 331.7 345.9 0.00 0.4030000 44.2
2021-01-21 09:40:00 50.7 52.1 33.7 50.7 2.6 3.7 2.9 1.6 15.4 0.00 0.4130000 44.3
2021-01-21 09:45:00 51.2 51.5 34.0 51.2 0.8 3.0 1.7 347.5 14.9 0.00 0.4220000 44.3
2021-01-21 09:50:00 51.7 50.8 34.0 51.7 1.9 4.0 2.6 90.9 34.9 0.00 0.4240000 44.3
2021-01-21 09:55:00 52.7 49.1 34.1 52.7 2.8 4.6 3.1 8.8 29.2 0.00 0.3880000 44.3
2021-01-21 10:00:00 52.5 49.3 34.1 52.5 5.6 5.6 3.2 3.3 0.7 0.00 0.4850000 44.3
2021-01-21 10:05:00 53.0 50.0 34.8 53.0 5.6 6.0 4.9 345.2 1.1 0.00 0.4720000 44.3
2021-01-21 10:10:00 52.6 49.8 34.4 52.6 5.6 6.7 5.3 23.5 349.1 0.00 0.4820000 44.4
2021-01-21 10:15:00 53.3 49.8 35.0 53.3 7.4 8.0 5.7 333.4 348.8 0.00 0.4920000 44.4
2021-01-21 10:20:00 54.0 50.4 35.9 54.0 3.3 6.7 4.9 312.7 351.9 0.00 0.5000000 44.4
2021-01-21 10:25:00 53.4 49.2 34.8 53.4 5.5 6.5 4.3 349.0 0.0 0.00 0.5020000 44.4
2021-01-21 10:30:00 53.6 48.7 34.8 53.6 6.3 8.0 5.3 19.2 9.2 0.00 0.5090000 44.4
2021-01-21 10:35:00 53.7 48.0 34.5 53.7 4.2 5.6 3.8 58.9 36.9 0.00 0.5460000 44.5
2021-01-21 10:40:00 54.2 46.8 34.3 54.2 2.8 5.3 3.6 24.3 28.4 0.00 0.6000000 44.5
2021-01-21 10:45:00 56.4 45.7 35.7 56.4 1.3 3.7 2.1 179.8 315.4 0.00 0.5510000 44.6
2021-01-21 10:50:00 55.6 45.2 34.7 55.6 4.4 7.1 4.0 43.6 354.3 0.00 0.5320000 44.6
2021-01-21 10:55:00 55.5 44.4 34.2 55.5 5.1 6.5 4.1 335.3 17.3 0.00 0.5380000 44.6
2021-01-21 11:00:00 56.1 45.3 35.2 56.1 2.4 4.9 3.4 118.0 71.5 0.00 0.5460000 44.7
2021-01-21 11:05:00 57.2 43.9 35.4 57.2 3.7 5.3 3.2 327.2 17.8 0.00 0.5480000 44.7
2021-01-21 11:10:00 56.9 43.9 35.1 56.9 2.1 6.7 4.5 335.9 335.0 0.00 0.5600000 44.8
2021-01-21 11:15:00 58.9 42.1 35.9 58.9 4.4 4.9 3.7 42.6 13.9 0.00 0.5710000 44.8
2021-01-21 11:20:00 59.2 40.9 35.5 59.2 3.1 3.8 2.8 42.9 69.4 0.00 0.5520000 44.9
2021-01-21 11:25:00 60.8 40.2 36.4 60.8 2.4 2.8 1.9 127.4 113.2 0.00 0.6100000 44.9
2021-01-21 11:30:00 62.3 38.4 36.6 62.3 0.8 3.1 1.5 128.6 88.2 0.00 0.4780000 45.0
2021-01-21 11:35:00 62.4 39.7 37.6 62.4 4.9 5.3 3.2 48.4 73.1 0.00 0.6400000 45.0
2021-01-21 11:40:00 62.3 39.7 37.5 62.3 4.7 6.2 3.6 56.0 46.6 0.00 0.7130000 45.1
2021-01-21 11:45:00 63.4 38.4 37.6 63.4 7.2 8.0 4.8 63.1 41.7 0.00 0.5460000 45.2
2021-01-21 11:50:00 62.0 40.5 37.7 62.0 4.0 6.9 5.3 108.0 88.4 0.00 0.7980000 45.3
2021-01-21 11:55:00 63.1 39.1 37.7 63.1 4.7 6.5 4.6 140.1 126.2 0.00 0.9760000 45.3
2021-01-21 12:00:00 64.9 38.0 38.7 64.9 3.8 4.9 3.3 137.2 158.1 0.00 0.4300000 45.4
2021-01-21 12:05:00 65.4 37.6 38.8 65.4 5.8 5.8 3.0 152.3 137.0 0.00 0.3510000 45.5
2021-01-21 12:10:00 65.1 37.5 38.5 65.1 4.7 6.0 3.3 144.8 175.2 0.00 0.3420000 45.6
2021-01-21 12:15:00 66.4 36.7 39.1 66.4 4.9 6.0 3.4 222.8 179.0 0.00 0.4760000 45.7
2021-01-21 12:20:00 67.8 35.7 39.7 67.8 2.2 4.2 2.7 269.8 207.2 0.00 0.7800000 45.8
2021-01-21 12:25:00 68.6 34.6 39.6 68.6 12.6 12.6 3.4 42.8 343.5 0.00 0.4920000 45.9
2021-01-21 12:30:00 67.7 36.1 39.8 67.7 8.1 11.5 8.8 293.0 319.1 0.00 0.5070000 46.0
2021-01-21 12:35:00 69.8 33.9 40.1 69.8 17.1 18.1 10.6 218.9 242.8 0.00 0.6990000 46.1
2021-01-21 12:40:00 70.3 35.1 41.4 70.3 14.4 18.1 13.7 240.0 227.9 0.00 0.7110000 46.2
2021-01-21 12:45:00 69.4 34.9 40.5 69.4 16.5 17.2 14.5 228.7 226.8 0.00 0.1870000 46.3
2021-01-21 12:50:00 69.2 35.3 40.6 69.2 19.0 19.8 15.6 214.0 222.4 0.00 0.2990000 46.4
2021-01-21 12:55:00 69.2 35.6 40.9 69.2 15.6 19.0 15.6 237.2 228.6 0.00 0.5680000 46.6
2021-01-21 13:00:00 69.2 33.6 39.3 69.2 14.6 19.6 15.8 222.8 245.5 0.00 0.6040000 46.7
2021-01-21 13:05:00 69.5 35.0 40.7 69.5 11.2 18.3 14.7 214.0 222.5 0.00 0.2890000 46.8
2021-01-21 13:10:00 68.7 36.6 41.1 68.7 9.7 18.3 13.8 191.6 214.0 0.00 0.3590000 46.9
2021-01-21 13:15:00 69.1 36.0 41.0 69.1 12.1 16.5 13.1 210.5 200.7 0.00 0.2560000 47.0
2021-01-21 13:20:00 68.4 37.2 41.3 68.4 12.1 16.4 12.4 204.2 207.0 0.00 0.3160000 47.1
2021-01-21 13:25:00 68.1 36.8 40.7 68.1 12.4 18.5 13.6 198.1 197.8 0.00 0.2940000 47.2
2021-01-21 13:30:00 68.5 36.0 40.4 68.5 12.6 16.2 12.7 229.0 216.1 0.00 0.5350000 47.3
2021-01-21 13:35:00 67.9 37.0 40.7 67.9 16.5 17.1 14.1 218.4 220.3 0.00 0.3060000 47.4
2021-01-21 13:40:00 67.2 37.9 40.6 67.2 11.2 17.6 14.0 221.4 216.7 0.00 0.2740000 47.6
2021-01-21 13:45:00 67.0 38.3 40.8 67.0 11.5 17.6 13.5 209.0 220.8 0.00 0.2210000 47.6
2021-01-21 13:50:00 66.4 39.0 40.7 66.4 16.5 17.2 14.3 219.8 212.8 0.00 0.2130000 47.7
2021-01-21 13:55:00 66.4 38.7 40.5 66.4 16.9 17.6 13.1 205.7 210.9 0.00 0.2320000 47.8
2021-01-21 14:00:00 66.3 38.9 40.5 66.3 10.3 15.6 11.9 212.6 207.1 0.00 0.2350000 47.9
2021-01-21 14:05:00 66.4 38.5 40.4 66.4 16.5 17.6 12.4 212.9 205.7 0.00 0.2350000 48.0
2021-01-21 14:10:00 66.3 38.4 40.1 66.3 17.4 17.4 13.7 213.2 208.1 0.00 0.1800000 48.1
2021-01-21 14:15:00 66.1 38.9 40.4 66.1 16.4 18.3 14.7 219.5 201.2 0.00 0.1680000 48.2
2021-01-21 14:20:00 65.3 40.1 40.4 65.3 17.4 20.1 16.5 204.1 212.0 0.00 0.1280000 48.3
2021-01-21 14:25:00 65.4 39.8 40.3 65.4 15.5 17.4 14.2 206.0 207.1 0.00 0.1220000 48.4
2021-01-21 14:30:00 65.0 40.3 40.2 65.0 19.6 19.6 15.1 199.5 203.6 0.00 0.1040000 48.5
2021-01-21 14:35:00 64.6 41.0 40.4 64.6 14.6 19.0 15.5 211.0 210.9 0.00 0.0870000 48.5
2021-01-21 14:40:00 64.2 41.5 40.3 64.2 13.0 17.6 14.5 213.1 210.3 0.00 0.0780000 48.6
2021-01-21 14:45:00 64.0 41.9 40.4 64.0 16.4 18.1 14.7 203.2 211.9 0.00 0.0830000 48.7
2021-01-21 14:50:00 64.0 41.7 40.2 64.0 19.6 19.6 15.0 218.0 212.5 0.00 0.1140000 48.8
2021-01-21 14:55:00 64.0 42.7 40.9 64.0 16.4 19.6 15.7 247.7 227.3 0.00 0.1010000 48.8
2021-01-21 15:00:00 63.2 44.9 41.4 63.2 15.8 22.3 16.2 232.1 230.4 0.00 0.1090000 48.9
2021-01-21 15:05:00 63.3 45.3 41.8 63.3 15.3 21.0 15.2 241.7 241.5 0.00 0.1030000 48.9
2021-01-21 15:10:00 61.8 50.2 43.1 61.8 14.7 17.8 15.1 232.9 227.1 0.00 0.1350000 49.0
2021-01-21 15:15:00 61.1 55.0 44.8 61.1 13.1 17.2 14.2 250.4 239.0 0.00 0.1410000 49.0
2021-01-21 15:20:00 60.8 53.8 44.0 60.8 6.7 15.6 11.0 208.8 234.3 0.00 0.1390000 49.1
2021-01-21 15:25:00 61.3 53.0 44.0 61.3 5.1 9.6 7.0 218.3 233.9 0.00 0.1430000 49.1
2021-01-21 15:30:00 61.8 48.8 42.3 61.8 7.4 7.8 6.3 204.7 215.4 0.00 0.1180000 49.2
2021-01-21 15:35:00 61.7 48.7 42.2 61.7 7.1 7.1 5.6 229.3 215.6 0.00 0.0770000 49.2
2021-01-21 15:40:00 61.8 49.4 42.7 61.8 6.5 8.1 6.5 183.5 201.1 0.00 0.0650000 49.2
2021-01-21 15:45:00 61.4 48.6 41.8 61.4 8.7 8.7 6.3 207.0 183.5 0.00 0.0590000 49.3
2021-01-21 15:50:00 61.8 48.9 42.4 61.8 5.6 8.7 6.3 205.0 202.3 0.00 0.0520000 49.3
2021-01-21 15:55:00 61.7 48.9 42.2 61.7 4.2 9.2 6.7 225.8 212.3 0.00 0.0560000 49.3
2021-01-21 16:00:00 61.9 47.8 41.9 61.9 7.2 7.8 6.7 228.2 215.3 0.00 0.0560000 49.4
2021-01-21 16:05:00 61.9 46.8 41.4 61.9 7.8 7.8 6.2 217.9 223.7 0.00 0.0340000 49.4
2021-01-21 16:10:00 62.1 47.0 41.6 62.1 6.7 9.0 6.3 198.6 209.5 0.00 0.0280000 49.4
2021-01-21 16:15:00 62.2 44.1 40.1 62.2 6.3 11.5 6.2 210.2 210.0 0.00 0.0290000 49.5
2021-01-21 16:20:00 62.5 44.3 40.4 62.5 6.2 8.0 5.2 204.3 206.1 0.00 0.0250000 49.5
2021-01-21 16:25:00 62.7 42.2 39.4 62.7 11.2 12.2 9.1 222.5 229.1 0.00 0.0230000 49.5
2021-01-21 16:30:00 62.9 42.3 39.6 62.9 18.7 20.8 16.1 254.3 250.0 0.00 0.0180000 49.5
2021-01-21 16:35:00 63.0 43.0 40.1 63.0 13.7 16.7 14.7 236.0 246.5 0.00 0.0180000 49.5
2021-01-21 16:40:00 62.3 43.5 39.8 62.3 18.7 18.7 15.0 263.2 252.6 0.00 0.0180000 49.5
2021-01-21 16:45:00 62.4 43.1 39.7 62.4 21.7 24.2 20.2 251.1 252.8 0.00 0.0200000 49.6
2021-01-21 16:50:00 62.5 42.8 39.6 62.5 23.7 23.7 18.6 260.3 255.0 0.00 0.0170000 49.6
2021-01-21 16:55:00 62.3 43.7 39.9 62.3 16.2 21.0 18.0 244.5 253.4 0.00 0.0090000 49.6
2021-01-21 17:00:00 61.8 45.0 40.3 61.8 13.7 22.3 16.5 249.6 252.8 0.00 0.0110000 49.6
2021-01-21 17:05:00 61.9 44.4 39.9 61.9 13.5 16.2 13.1 242.8 246.6 0.00 0.0120000 49.6
2021-01-21 17:10:00 61.7 44.6 39.9 61.7 11.0 15.5 12.8 244.3 245.9 0.00 0.0050000 49.6
2021-01-21 17:15:00 60.6 48.0 40.8 60.6 11.7 14.7 11.6 241.2 241.3 0.00 0.0030000 49.7
2021-01-21 17:20:00 60.2 48.2 40.6 60.2 13.1 15.5 11.9 235.8 234.0 0.00 0.0020000 49.7
2021-01-21 17:25:00 60.0 49.5 41.1 60.0 12.4 16.0 12.2 213.8 229.2 0.00 0.0040000 49.6
2021-01-21 17:30:00 59.6 50.0 41.0 59.6 10.1 14.6 10.7 256.6 228.8 0.00 0.0010000 49.6
2021-01-21 17:35:00 59.5 50.4 41.0 59.5 8.5 14.2 10.0 238.9 227.3 0.00 0.0000000 49.6
2021-01-21 17:40:00 59.3 50.8 41.1 59.3 9.6 11.7 9.7 217.1 227.6 0.00 0.0000000 49.6
2021-01-21 17:45:00 59.1 51.3 41.1 59.1 10.1 11.9 9.5 225.7 226.2 0.00 0.0000000 49.6
2021-01-21 17:50:00 59.1 51.6 41.3 59.1 9.7 12.1 10.4 240.2 228.1 0.00 0.0000000 49.6
2021-01-21 17:55:00 58.5 52.1 41.0 58.5 11.9 13.0 10.9 221.6 228.4 0.00 0.0000000 49.6
2021-01-21 18:00:00 57.9 52.8 40.7 57.9 8.5 12.1 9.9 233.9 227.4 0.00 0.0000000 49.7
2021-01-21 18:05:00 57.6 52.8 40.5 57.6 8.0 12.6 9.8 224.2 224.4 0.00 0.0000000 49.6
2021-01-21 18:10:00 57.5 52.7 40.4 57.5 11.5 11.7 9.8 236.9 234.0 0.00 0.0000000 49.7
2021-01-21 18:15:00 57.1 53.1 40.2 57.1 8.3 11.2 9.1 232.0 227.1 0.00 0.0000000 49.6
2021-01-21 18:20:00 56.7 53.9 40.2 56.7 10.6 12.1 8.5 245.3 227.4 0.00 0.0000000 49.6
2021-01-21 18:25:00 56.4 53.4 39.7 56.4 8.5 11.9 9.6 240.7 228.7 0.00 0.0000000 49.6
2021-01-21 18:30:00 56.9 52.4 39.7 56.9 11.9 14.7 11.7 227.7 236.0 0.00 0.0000000 49.6
2021-01-21 18:35:00 56.8 52.2 39.4 56.8 11.3 14.6 11.9 239.9 239.0 0.00 0.0000000 49.6
2021-01-21 18:40:00 56.8 51.3 39.0 56.8 13.5 17.2 12.1 237.9 242.3 0.00 0.0000000 49.6
2021-01-21 18:45:00 57.1 50.0 38.7 57.1 15.6 17.2 13.0 252.0 244.1 0.00 0.0000000 49.6
2021-01-21 18:50:00 57.6 49.7 39.0 57.6 12.1 16.0 13.6 260.0 245.7 0.00 0.0000000 49.6
2021-01-21 18:55:00 57.6 49.7 39.0 57.6 13.5 19.2 14.2 247.3 240.0 0.00 0.0000000 49.6
2021-01-21 19:00:00 57.0 50.3 38.7 57.0 12.2 16.9 13.9 247.8 243.5 0.00 0.0000000 49.5
2021-01-21 19:05:00 56.8 50.5 38.6 56.8 13.7 14.9 13.0 238.5 242.9 0.00 0.0000000 49.5
2021-01-21 19:10:00 56.7 51.1 38.8 56.7 10.5 16.0 13.3 237.2 241.3 0.00 0.0000000 49.5
2021-01-21 19:15:00 56.6 51.7 39.0 56.6 12.2 14.4 12.1 253.6 242.2 0.00 0.0000000 49.5
2021-01-21 19:20:00 56.5 51.8 39.0 56.5 12.1 16.0 12.5 233.3 242.8 0.00 0.0000000 49.5
2021-01-21 19:25:00 56.0 52.2 38.8 56.0 12.1 14.9 12.0 239.6 243.3 0.00 0.0000000 49.4
2021-01-21 19:30:00 55.8 53.5 39.2 55.8 8.8 12.6 10.4 242.6 246.7 0.00 0.0000000 49.4
2021-01-21 19:35:00 55.0 54.4 38.9 55.0 8.3 13.0 10.1 245.0 248.3 0.00 0.0000000 49.4
2021-01-21 19:40:00 54.5 56.0 39.1 54.5 8.0 10.8 8.9 262.7 258.2 0.00 0.0000000 49.4
2021-01-21 19:45:00 53.9 57.2 39.1 53.9 7.8 9.6 8.5 255.0 251.3 0.00 0.0000000 49.4
2021-01-21 19:50:00 52.8 59.1 38.9 52.8 8.5 9.4 8.2 242.8 254.7 0.00 0.0000000 49.4
2021-01-21 19:55:00 52.5 59.4 38.8 52.5 6.7 8.5 7.6 236.0 240.7 0.00 0.0000000 49.3
2021-01-21 20:00:00 52.3 59.4 38.6 52.3 8.1 10.3 8.3 234.0 234.5 0.00 0.0000000 49.3
2021-01-21 20:05:00 51.9 59.8 38.4 51.9 7.1 9.6 8.2 227.6 225.3 0.00 0.0000000 49.3
2021-01-21 20:10:00 51.7 60.5 38.5 51.7 6.7 8.3 6.4 242.5 236.1 0.00 0.0000000 49.3
2021-01-21 20:15:00 51.3 60.7 38.2 51.3 4.9 6.7 5.5 245.6 246.7 0.00 0.0000000 49.3
2021-01-21 20:20:00 51.3 60.7 38.2 51.3 5.5 6.9 6.0 243.3 238.4 0.00 0.0000000 49.3
2021-01-21 20:25:00 51.0 60.9 38.0 51.0 5.6 6.7 5.6 237.0 243.8 0.00 0.0000000 49.2
2021-01-21 20:30:00 51.0 61.2 38.2 51.0 5.6 6.9 5.6 252.4 259.4 0.00 0.0000000 49.2
2021-01-21 20:35:00 51.2 59.8 37.7 51.2 6.0 8.5 6.2 276.1 265.3 0.00 0.0000000 49.2
2021-01-21 20:40:00 51.9 59.1 38.1 51.9 7.4 10.5 8.5 285.6 278.7 0.00 0.0000000 49.1
2021-01-21 20:45:00 51.8 60.0 38.3 51.8 8.0 9.9 7.7 284.9 279.8 0.00 0.0000000 49.1
2021-01-21 20:50:00 51.5 59.5 37.9 51.5 8.3 9.9 7.7 293.9 287.1 0.00 0.0000000 49.1
2021-01-21 20:55:00 51.4 59.1 37.6 51.4 3.7 6.9 5.1 56.0 343.3 0.00 0.0000000 49.0
2021-01-21 21:00:00 50.0 62.4 37.7 50.0 5.3 5.3 2.8 281.6 59.8 0.00 0.0000000 49.0
2021-01-21 21:05:00 50.9 60.6 37.7 50.9 7.6 14.6 7.9 265.7 265.7 0.00 0.0000000 49.0
2021-01-21 21:10:00 51.9 59.0 38.0 51.9 4.0 7.8 4.4 44.6 21.6 0.00 0.0000000 49.0
2021-01-21 21:15:00 50.3 62.4 37.9 50.3 1.9 7.4 3.8 146.2 53.0 0.00 0.0000000 48.9
2021-01-21 21:20:00 48.9 66.3 38.2 48.9 3.8 7.1 4.5 55.6 186.5 0.00 0.0000000 48.9
2021-01-21 21:25:00 50.5 64.2 38.8 50.5 7.6 11.5 7.6 279.9 320.1 0.00 0.0000000 48.9
2021-01-21 21:30:00 52.1 61.0 39.1 52.1 8.3 12.2 9.8 298.6 275.6 0.00 0.0000000 48.8
2021-01-21 21:35:00 52.3 61.1 39.3 52.3 8.1 11.2 8.7 343.3 315.0 0.00 0.0000000 48.8
2021-01-21 21:40:00 51.8 61.2 38.9 51.8 9.0 12.4 8.1 308.2 322.7 0.00 0.0000000 48.8
2021-01-21 21:45:00 52.3 60.7 39.1 52.3 8.7 11.9 9.9 295.3 304.9 0.00 0.0000000 48.7
2021-01-21 21:50:00 52.0 62.2 39.5 52.0 7.8 10.1 8.5 300.3 304.5 0.00 0.0000000 48.7
2021-01-21 21:55:00 51.0 63.8 39.2 51.0 5.8 9.9 7.7 295.9 291.2 0.00 0.0000000 48.7
2021-01-21 22:00:00 50.4 65.3 39.2 50.4 8.5 9.0 7.1 314.7 307.5 0.00 0.0000000 48.6
2021-01-21 22:05:00 50.1 65.8 39.1 50.1 5.3 9.6 7.4 305.3 300.8 0.00 0.0000000 48.6
2021-01-21 22:10:00 50.0 66.2 39.2 50.0 9.9 10.5 8.0 280.2 292.9 0.00 0.0000000 48.6
2021-01-21 22:15:00 50.7 65.0 39.3 50.7 10.3 12.8 9.7 282.4 287.5 0.00 0.0000000 48.5
2021-01-21 22:20:00 51.2 62.4 38.8 51.2 13.1 14.6 11.4 266.1 281.8 0.00 0.0000000 48.5
2021-01-21 22:25:00 51.7 60.5 38.5 51.7 11.5 14.7 12.2 313.7 290.8 0.00 0.0000000 48.5
2021-01-21 22:30:00 51.8 60.0 38.4 51.8 8.5 14.7 11.3 301.9 299.9 0.00 0.0000000 48.5
2021-01-21 22:35:00 50.6 61.6 37.9 50.6 8.8 10.8 9.0 273.9 287.0 0.00 0.0000000 48.4
2021-01-21 22:40:00 50.1 62.3 37.7 50.1 7.4 11.0 8.5 309.3 292.1 0.00 0.0000000 48.4
2021-01-21 22:45:00 50.1 61.3 37.3 50.1 9.2 9.9 7.6 277.2 302.7 0.00 0.0000000 48.4
2021-01-21 22:50:00 49.9 60.8 36.9 49.9 10.1 11.2 8.7 285.5 281.7 0.00 0.0000000 48.3
2021-01-21 22:55:00 49.9 59.9 36.5 49.9 8.5 12.2 9.5 307.8 291.0 0.00 0.0000000 48.3
2021-01-21 23:00:00 49.4 60.6 36.4 49.4 10.5 10.6 8.9 286.5 287.0 0.00 0.0000000 48.3
2021-01-21 23:05:00 49.6 59.5 36.1 49.6 8.1 12.4 9.5 276.0 280.0 0.00 0.0000000 48.3
2021-01-21 23:10:00 49.0 60.8 36.0 49.0 7.2 9.6 7.3 288.7 278.7 0.00 0.0000000 48.2
2021-01-21 23:15:00 48.7 61.2 35.9 48.7 7.2 8.0 6.8 280.8 283.6 0.00 0.0000000 48.2
2021-01-21 23:20:00 48.0 61.7 35.4 48.0 7.8 8.3 7.2 277.9 278.1 0.00 0.0000000 48.2
2021-01-21 23:25:00 47.0 63.5 35.3 47.0 6.3 7.8 6.8 270.4 275.1 0.00 0.0000000 48.2
2021-01-21 23:30:00 46.3 64.9 35.2 46.3 6.7 7.4 6.6 277.2 279.0 0.00 0.0000000 48.1
2021-01-21 23:35:00 46.3 63.3 34.5 46.3 5.8 7.2 6.2 265.2 271.5 0.00 0.0000000 48.1
2021-01-21 23:40:00 45.5 65.4 34.6 45.5 5.3 5.8 5.4 255.7 262.7 0.00 0.0000000 48.1
2021-01-21 23:45:00 45.2 66.3 34.6 45.2 4.9 5.8 5.3 247.7 246.5 0.00 0.0000000 48.1
2021-01-21 23:50:00 45.2 65.9 34.4 45.2 4.2 5.8 4.9 249.7 245.2 0.00 0.0000000 48.0
2021-01-21 23:55:00 45.3 65.4 34.4 45.3 5.5 5.8 5.0 267.4 254.2 0.00 0.0000000 48.0
2021-01-22 00:00:00 46.4 63.5 34.7 46.4 5.8 7.1 5.9 268.6 266.9 0.00 0.0000000 48.0
2021-01-22 00:05:00 46.5 64.1 35.0 46.5 6.7 8.1 6.8 282.7 274.1 0.00 0.0000000 47.9
2021-01-22 00:10:00 46.3 64.6 35.1 46.3 6.2 7.4 6.6 271.7 275.1 0.00 0.0000000 47.9
2021-01-22 00:15:00 45.3 67.9 35.3 45.3 6.7 7.4 6.3 284.5 273.0 0.00 0.0000000 47.9
2021-01-22 00:20:00 45.6 68.2 35.7 45.6 6.2 7.6 6.7 278.2 289.8 0.00 0.0000000 47.8
2021-01-22 00:25:00 46.0 68.1 36.1 46.0 5.6 7.1 6.2 284.1 274.1 0.00 0.0000000 47.8
2021-01-22 00:30:00 45.4 70.3 36.3 45.4 6.9 6.9 6.0 262.3 294.7 0.00 0.0000000 47.8
2021-01-22 00:35:00 45.3 69.8 36.0 45.3 4.7 6.7 6.0 257.4 260.7 0.00 0.0000000 47.8
2021-01-22 00:40:00 44.6 71.4 36.0 44.6 6.3 6.3 4.6 341.7 297.9 0.00 0.0000000 47.7
2021-01-22 00:45:00 45.8 68.7 36.1 45.8 5.1 7.4 5.8 324.4 337.7 0.00 0.0000000 47.7
2021-01-22 00:50:00 45.3 68.4 35.5 45.3 4.4 5.3 4.9 314.9 326.0 0.00 0.0000000 47.7
2021-01-22 00:55:00 44.3 69.7 35.1 44.3 4.6 5.1 4.4 317.8 298.1 0.00 0.0000000 47.6
2021-01-22 01:00:00 43.8 70.1 34.7 43.8 4.6 4.9 4.6 313.2 322.0 0.00 0.0000000 47.6
2021-01-22 01:05:00 43.5 70.8 34.6 43.5 4.9 4.9 4.3 295.1 299.3 0.00 0.0000000 47.6
2021-01-22 01:10:00 44.0 69.4 34.6 44.0 4.4 6.0 4.4 265.5 273.9 0.00 0.0000000 47.5
2021-01-22 01:15:00 42.7 71.3 34.1 42.7 4.0 4.2 3.6 259.9 258.8 0.00 0.0000000 47.5
2021-01-22 01:20:00 42.3 73.5 34.4 42.3 4.2 4.6 4.4 270.4 267.3 0.00 0.0000000 47.5
2021-01-22 01:25:00 41.0 76.2 34.1 41.0 4.7 4.9 4.3 271.7 274.9 0.00 0.0000000 47.4
2021-01-22 01:30:00 40.5 78.9 34.5 40.5 4.7 5.6 4.8 270.8 277.5 0.00 0.0000000 47.4
2021-01-22 01:35:00 40.4 77.9 34.1 40.4 4.4 5.1 4.4 250.5 257.7 0.00 0.0000000 47.4
2021-01-22 01:40:00 40.6 82.4 35.7 40.6 4.9 5.1 4.7 243.6 245.8 0.00 0.0000000 47.3
2021-01-22 01:45:00 40.8 79.7 35.1 40.8 3.8 5.1 4.6 262.9 253.0 0.00 0.0000000 47.3
2021-01-22 01:50:00 40.5 83.2 35.9 40.5 4.7 5.1 4.5 283.9 282.5 0.00 0.0000000 47.2
2021-01-22 01:55:00 41.4 82.1 36.4 41.4 3.8 4.7 4.2 306.4 295.6 0.00 0.0000000 47.2
2021-01-22 02:00:00 42.7 81.4 37.4 42.7 3.0 3.8 3.3 42.3 338.3 0.00 0.0000000 47.2
2021-01-22 02:05:00 39.9 76.1 33.0 39.9 4.4 5.6 3.7 83.6 71.4 0.00 0.0000000 47.1
2021-01-22 02:10:00 39.8 81.6 34.6 39.8 5.1 6.2 4.7 86.2 82.2 0.00 0.0000000 47.1
2021-01-22 02:15:00 41.8 79.0 35.7 41.8 4.4 5.1 3.7 46.7 53.1 0.00 0.0000000 47.0
2021-01-22 02:20:00 41.3 80.1 35.7 41.3 3.1 4.7 3.6 48.1 29.5 0.00 0.0000000 47.0
2021-01-22 02:25:00 41.9 80.2 36.2 41.9 3.3 4.0 3.2 0.2 33.4 0.00 0.0000000 47.0
2021-01-22 02:30:00 41.5 75.1 34.2 41.5 3.5 4.6 3.4 59.6 57.7 0.00 0.0000000 46.9
2021-01-22 02:35:00 40.7 74.3 33.1 40.7 3.0 3.7 2.6 39.2 58.9 0.00 0.0000000 46.9
2021-01-22 02:40:00 39.8 75.2 32.6 39.8 1.9 3.5 2.9 11.9 38.2 0.00 0.0000000 46.9
2021-01-22 02:45:00 39.6 75.5 32.5 39.6 3.8 3.8 2.4 321.7 340.7 0.00 0.0000000 46.8
2021-01-22 02:50:00 38.1 77.2 31.6 38.1 4.7 4.9 4.0 345.2 336.5 0.00 0.0000000 46.8
2021-01-22 02:55:00 37.5 80.3 32.0 37.5 5.3 5.6 5.1 339.1 338.0 0.00 0.0000000 46.8
2021-01-22 03:00:00 36.6 84.2 32.3 36.6 3.7 5.5 3.8 333.6 343.5 0.00 0.0000000 46.7
2021-01-22 03:05:00 37.1 80.4 31.6 37.1 3.5 4.9 3.9 351.2 344.0 0.00 0.0000000 46.7
2021-01-22 03:10:00 36.8 79.5 31.0 36.8 3.0 4.0 3.4 328.8 336.8 0.00 0.0000000 46.7
2021-01-22 03:15:00 36.9 80.5 31.5 36.9 3.8 3.8 3.0 338.9 343.0 0.00 0.0000000 46.6
2021-01-22 03:20:00 37.3 79.0 31.4 37.3 3.8 4.7 3.9 323.4 331.9 0.00 0.0000000 46.6
2021-01-22 03:25:00 38.4 77.4 32.0 38.4 2.4 4.2 3.6 324.7 326.0 0.00 0.0000000 46.5
2021-01-22 03:30:00 37.1 79.0 31.2 37.1 0.0 2.4 1.3 142.9 200.2 0.00 0.0000000 46.5
2021-01-22 03:35:00 36.8 80.8 31.4 36.8 0.0 0.0 0.0 179.9 0.0 0.00 0.0000000 46.5
2021-01-22 03:40:00 37.1 80.5 31.7 37.1 0.0 0.0 0.0 315.1 0.0 0.00 0.0000000 46.4
2021-01-22 03:45:00 37.1 80.6 31.7 37.1 0.0 0.0 0.0 167.3 0.0 0.00 0.0000000 46.4
2021-01-22 03:50:00 36.9 81.5 31.7 36.9 3.5 3.5 2.3 206.0 203.2 0.00 0.0000000 46.3
2021-01-22 03:55:00 35.8 80.7 30.4 35.8 1.0 3.5 2.9 240.4 214.2 0.00 0.0000000 46.3
2021-01-22 04:00:00 35.4 83.3 30.8 35.4 2.6 3.0 1.7 255.1 253.1 0.00 0.0000000 46.3
2021-01-22 04:05:00 35.1 81.3 29.9 35.1 2.6 3.5 3.1 274.5 264.1 0.00 0.0000000 46.2
2021-01-22 04:10:00 34.9 84.7 30.8 34.9 0.0 2.6 1.3 211.2 265.2 0.00 0.0000000 46.2
2021-01-22 04:15:00 36.1 84.2 31.8 36.1 1.9 1.9 0.9 168.9 201.2 0.00 0.0000000 46.1
2021-01-22 04:20:00 35.8 82.0 30.8 35.8 2.2 2.4 1.8 25.3 167.0 0.00 0.0000000 46.1
2021-01-22 04:25:00 36.1 83.3 31.5 36.1 2.1 3.0 1.6 0.5 5.4 0.00 0.0000000 46.0
2021-01-22 04:30:00 37.1 80.0 31.6 37.1 1.2 2.4 1.9 312.2 334.1 0.00 0.0000000 46.0
2021-01-22 04:35:00 35.6 79.4 29.9 35.6 4.0 4.0 3.2 292.4 290.0 0.00 0.0000000 46.0
2021-01-22 04:40:00 34.1 84.2 29.8 34.1 2.4 4.0 2.7 333.7 310.2 0.00 0.0000000 45.9
2021-01-22 04:45:00 36.0 83.7 31.5 36.0 3.7 3.7 2.2 4.8 352.0 0.00 0.0000000 45.9
2021-01-22 04:50:00 35.8 81.2 30.6 35.8 3.7 3.7 2.8 344.1 342.3 0.00 0.0000000 45.8
2021-01-22 04:55:00 34.1 83.4 29.6 34.1 4.4 5.1 4.2 349.8 333.4 0.00 0.0000000 45.8
2021-01-22 05:00:00 33.2 84.3 29.0 33.2 2.8 5.1 4.0 333.6 330.3 0.00 0.0000000 45.8
2021-01-22 05:05:00 32.6 86.2 28.9 32.6 2.1 4.9 3.3 328.3 319.7 0.00 0.0000000 45.7
2021-01-22 05:10:00 33.1 87.3 29.7 33.1 2.8 5.1 2.9 285.3 303.5 0.00 0.0000000 45.7
2021-01-22 05:15:00 32.6 86.4 29.0 32.6 3.3 4.7 3.3 291.8 285.2 0.00 0.0000000 45.6
2021-01-22 05:20:00 32.4 88.3 29.3 32.4 4.0 4.4 3.0 279.6 297.4 0.00 0.0000000 45.6
2021-01-22 05:25:00 32.3 87.3 28.9 32.3 3.8 4.7 4.1 290.2 284.7 0.00 0.0000000 45.5
2021-01-22 05:30:00 33.0 88.1 29.8 33.0 3.8 4.6 4.1 291.2 288.2 0.00 0.0000000 45.5
2021-01-22 05:35:00 33.3 86.5 29.7 33.3 3.3 3.8 3.4 295.8 292.7 0.00 0.0000000 45.5
2021-01-22 05:40:00 33.3 85.0 29.3 33.3 4.6 4.9 4.0 282.7 289.4 0.00 0.0000000 45.4
2021-01-22 05:45:00 32.7 86.9 29.3 32.7 4.9 5.3 4.7 286.5 281.2 0.00 0.0000000 45.4
2021-01-22 05:50:00 32.8 87.9 29.7 32.8 4.6 5.3 4.8 274.6 279.0 0.00 0.0000000 45.3
2021-01-22 05:55:00 33.2 87.9 30.0 33.2 4.6 5.3 4.7 282.0 267.8 0.00 0.0000000 45.3
2021-01-22 06:00:00 32.8 88.1 29.7 32.8 4.2 5.3 4.5 285.4 280.7 0.00 0.0000000 45.3
2021-01-22 06:05:00 33.0 89.0 30.1 33.0 4.6 4.9 4.4 277.8 279.6 0.00 0.0000000 45.2
2021-01-22 06:10:00 33.4 88.5 30.4 33.4 4.0 4.9 4.3 281.3 274.8 0.00 0.0000000 45.2
2021-01-22 06:15:00 33.2 88.9 30.3 33.2 3.7 4.6 3.8 283.9 281.8 0.00 0.0000000 45.2
2021-01-22 06:20:00 33.0 88.7 30.0 33.0 3.7 4.2 3.9 285.0 276.2 0.00 0.0000000 45.1
2021-01-22 06:25:00 33.3 90.5 30.8 33.3 6.0 6.0 4.5 290.8 292.8 0.00 0.0000000 45.1
2021-01-22 06:30:00 34.4 88.6 31.4 34.4 5.8 6.5 6.0 293.4 282.8 0.00 0.0000000 45.0
2021-01-22 06:35:00 34.7 86.8 31.2 34.7 4.9 6.3 5.6 282.2 277.8 0.00 0.0000000 45.0
2021-01-22 06:40:00 34.6 86.7 31.0 34.6 1.9 5.3 3.8 11.0 290.0 0.00 0.0000000 44.9
2021-01-22 06:45:00 34.8 87.2 31.3 34.8 3.3 3.3 2.3 259.3 10.0 0.00 0.0010000 44.9
2021-01-22 06:50:00 34.9 84.9 30.8 34.9 0.0 4.0 2.0 22.3 290.5 0.00 0.0020000 44.9

Data is courtesy of the NM Climate Center. DO NOT USE IN LEGAL PROCEEDINGS.